createdAt,value
2018-11-22T12:18:09.405Z,97308.97
2018-11-22T12:20:36.827Z,97309.73
2018-11-22T12:23:04.776Z,97312.01
2018-11-22T12:25:32.232Z,97306.66
2018-11-22T12:27:59.659Z,97305.91
2018-11-22T12:30:27.186Z,97301.39
2018-11-22T12:32:54.727Z,97300.44
2018-11-22T12:35:22.168Z,97299.57
2018-11-22T12:37:49.605Z,97304.94
2018-11-22T12:40:17.004Z,97298.94
2018-11-22T12:42:44.572Z,97294.03
2018-11-22T12:45:12.749Z,97299.56
2018-11-22T12:47:40.230Z,97299.00
2018-11-22T12:50:07.658Z,97297.12
2018-11-22T12:52:36.019Z,97288.86
2018-11-22T12:55:03.728Z,97290.30
2018-11-22T12:57:31.167Z,97289.61
2018-11-22T12:59:58.577Z,97286.83
2018-11-22T13:02:26.016Z,97280.53
2018-11-22T13:04:53.441Z,97282.72
2018-11-22T13:07:20.855Z,97279.06
2018-11-22T13:09:48.274Z,97281.19
2018-11-22T13:12:15.728Z,97284.50
2018-11-22T13:14:43.203Z,97281.55
2018-11-22T13:17:10.682Z,97286.83
2018-11-22T13:19:38.164Z,97285.03
2018-11-22T13:22:05.625Z,97286.36
2018-11-22T13:24:33.049Z,97290.16
2018-11-22T13:27:00.476Z,97289.62
2018-11-22T13:29:28.061Z,97288.61
2018-11-22T13:31:55.473Z,97286.06
2018-11-22T13:34:23.057Z,97292.29
2018-11-22T13:36:50.483Z,97286.00
2018-11-22T13:39:17.896Z,97285.20
2018-11-22T13:41:45.299Z,97280.28
2018-11-22T13:44:12.773Z,97277.95
2018-11-22T13:46:40.210Z,97276.41
2018-11-22T13:49:08.070Z,97276.83
2018-11-22T13:51:36.729Z,97270.02
2018-11-22T13:54:03.410Z,97268.53
2018-11-22T13:56:30.932Z,97274.61
2018-11-22T13:58:58.407Z,97267.77
2018-11-22T14:01:25.795Z,97268.71
2018-11-22T14:03:53.252Z,97256.91
2018-11-22T14:06:20.757Z,97253.70
2018-11-22T14:08:48.171Z,97259.10
2018-11-22T14:11:15.783Z,97262.48
2018-11-22T14:13:43.189Z,97263.31
2018-11-22T14:16:10.631Z,97253.29
2018-11-22T14:18:38.055Z,97257.60
2018-11-22T14:21:05.511Z,97258.91
2018-11-22T14:23:32.933Z,97260.48
2018-11-22T14:26:00.350Z,97264.22
2018-11-22T14:28:27.778Z,97270.73
2018-11-22T14:30:55.179Z,97265.31
2018-11-22T14:33:22.597Z,97265.16
2018-11-22T14:35:50.012Z,97264.37
2018-11-22T14:38:17.892Z,97266.91
2018-11-22T14:40:45.311Z,97264.31
2018-11-22T14:43:12.937Z,97253.98
2018-11-22T14:45:41.254Z,97266.53
2018-11-22T14:48:08.667Z,97265.20
2018-11-22T14:50:36.165Z,97261.06
2018-11-22T14:53:03.698Z,97263.09
2018-11-22T14:55:31.133Z,97259.50
2018-11-22T14:57:58.805Z,97256.98
2018-11-22T15:00:26.224Z,97260.00
2018-11-22T15:02:53.984Z,97258.68
2018-11-22T15:05:21.618Z,97260.21
2018-11-22T15:07:49.070Z,97260.09
2018-11-22T15:10:16.545Z,97259.88
2018-11-22T15:12:43.946Z,97262.23
2018-11-22T15:15:11.387Z,97257.19
2018-11-22T15:17:38.808Z,97263.40
2018-11-22T15:20:06.249Z,97266.92
2018-11-22T15:22:33.691Z,97267.78
2018-11-22T15:25:01.161Z,97261.95
2018-11-22T15:27:28.566Z,97268.06
2018-11-22T15:29:55.968Z,97270.23
2018-11-22T15:32:23.906Z,97273.73
2018-11-22T15:34:51.316Z,97269.56
2018-11-22T15:37:18.764Z,97266.33
2018-11-22T15:39:46.228Z,97264.34
2018-11-22T15:42:13.643Z,97266.30
2018-11-22T15:44:41.463Z,97269.05
2018-11-22T15:47:08.870Z,97277.81
2018-11-22T15:49:36.290Z,97284.61
2018-11-22T15:52:03.705Z,97286.55
2018-11-22T15:54:31.261Z,97285.68
2018-11-22T15:56:58.681Z,97289.58
2018-11-22T15:59:26.420Z,97284.70
2018-11-22T16:01:53.849Z,97290.78
2018-11-22T16:04:21.258Z,97290.08
2018-11-22T16:06:48.685Z,97291.61
2018-11-22T16:09:16.337Z,97293.43
2018-11-22T16:11:43.784Z,97288.01
2018-11-22T16:14:11.208Z,97288.69
2018-11-22T16:16:38.657Z,97291.56
2018-11-22T16:19:06.323Z,97291.97
2018-11-22T16:21:33.727Z,97288.95
2018-11-22T16:24:01.148Z,97284.09
2018-11-22T16:26:28.546Z,97278.40
2018-11-22T16:28:55.957Z,97282.25
2018-11-22T16:31:23.452Z,97286.58
2018-11-22T16:33:51.080Z,97290.73
2018-11-22T16:36:18.478Z,97288.03
2018-11-22T16:38:46.174Z,97295.23
2018-11-22T16:41:13.752Z,97302.90
2018-11-22T16:43:41.175Z,97304.84
2018-11-22T16:46:08.603Z,97308.27
2018-11-22T16:48:36.092Z,97306.67
2018-11-22T16:51:05.361Z,97298.70
2018-11-22T16:53:33.234Z,97305.05
2018-11-22T16:56:00.649Z,97310.52
2018-11-22T16:58:28.879Z,97315.63
2018-11-22T17:00:56.316Z,97315.98
2018-11-22T17:03:23.717Z,97318.54
2018-11-22T17:05:51.141Z,97319.73
2018-11-22T17:08:18.628Z,97316.09
2018-11-22T17:10:46.103Z,97322.34
2018-11-22T17:13:13.544Z,97328.45
2018-11-22T17:15:40.973Z,97326.73
2018-11-22T17:18:08.431Z,97322.77
2018-11-22T17:20:36.088Z,97321.30
2018-11-22T17:23:03.601Z,97328.97
2018-11-22T17:25:31.033Z,97326.31
2018-11-22T17:27:58.563Z,97331.27
2018-11-22T17:30:26.009Z,97321.77
2018-11-22T17:32:53.457Z,97328.19
2018-11-22T17:35:20.870Z,97325.87
2018-11-22T17:37:48.289Z,97329.01
2018-11-22T17:40:15.741Z,97331.53
2018-11-22T17:42:43.282Z,97333.34
2018-11-22T17:45:10.820Z,97333.36
2018-11-22T17:47:38.263Z,97338.92
2018-11-22T17:50:07.308Z,97342.22
2018-11-22T17:52:34.717Z,97336.58
2018-11-22T17:55:02.123Z,97338.67
2018-11-22T17:57:29.660Z,97340.13
2018-11-22T17:59:58.044Z,97344.30
2018-11-22T18:02:25.451Z,97347.59
2018-11-22T18:04:52.871Z,97340.45
2018-11-22T18:07:20.310Z,97344.30
2018-11-22T18:09:47.773Z,97347.89
2018-11-22T18:12:15.195Z,97348.37
2018-11-22T18:14:42.629Z,97342.95
2018-11-22T18:17:10.188Z,97342.58
2018-11-22T18:19:38.302Z,97348.47
2018-11-22T18:22:05.723Z,97349.34
2018-11-22T18:24:33.495Z,97353.16
2018-11-22T18:27:00.989Z,97349.56
2018-11-22T18:29:28.376Z,97350.45
2018-11-22T18:31:55.798Z,97358.63
2018-11-22T18:34:23.206Z,97363.74
2018-11-22T18:36:50.615Z,97364.85
2018-11-22T18:39:19.012Z,97363.22
2018-11-22T18:41:47.203Z,97363.48
2018-11-22T18:44:14.623Z,97373.97
2018-11-22T18:46:42.240Z,97375.42
2018-11-22T18:49:09.871Z,97379.86
2018-11-22T18:51:37.312Z,97382.88
2018-11-22T18:54:04.753Z,97381.16
2018-11-22T18:56:36.978Z,97378.97
2018-11-22T18:58:59.851Z,97378.77
2018-11-22T19:01:27.280Z,97378.39
2018-11-22T19:03:55.016Z,97386.32
2018-11-22T19:06:22.575Z,97383.14
2018-11-22T19:08:50.139Z,97383.98
2018-11-22T19:11:17.568Z,97383.41
2018-11-22T19:13:44.995Z,97382.98
2018-11-22T19:16:12.439Z,97385.86
2018-11-22T19:18:40.974Z,97381.68
2018-11-22T19:21:08.405Z,97387.37
2018-11-22T19:23:35.823Z,97388.67
2018-11-22T19:26:03.273Z,97382.79
2018-11-22T19:28:30.697Z,97385.50
2018-11-22T19:30:58.150Z,97391.58
2018-11-22T19:33:25.669Z,97392.72
2018-11-22T19:35:53.103Z,97389.49
2018-11-22T19:38:20.526Z,97383.09
2018-11-22T19:40:48.881Z,97391.27
2018-11-22T19:43:16.329Z,97384.85
2018-11-22T19:45:43.737Z,97391.91
2018-11-22T19:48:11.152Z,97398.15
2018-11-22T19:50:38.639Z,97395.95
2018-11-22T19:53:06.102Z,97398.97
2018-11-22T19:55:33.586Z,97398.86
2018-11-22T19:58:01.144Z,97400.44
2018-11-22T20:00:28.729Z,97410.14
2018-11-22T20:02:56.171Z,97407.88
2018-11-22T20:05:23.611Z,97411.80
2018-11-22T20:07:51.047Z,97415.28
2018-11-22T20:10:18.480Z,97418.94
2018-11-22T20:12:45.922Z,97421.75
2018-11-22T20:15:13.337Z,97423.88
2018-11-22T20:17:40.743Z,97423.77
2018-11-22T20:20:08.148Z,97424.73
2018-11-22T20:22:35.669Z,97423.89
2018-11-22T20:25:03.152Z,97425.78
2018-11-22T20:27:30.593Z,97426.94
2018-11-22T20:29:58.796Z,97423.66
2018-11-22T20:32:26.210Z,97426.69
2018-11-22T20:34:53.717Z,97416.59
2018-11-22T20:37:21.145Z,97419.39
2018-11-22T20:39:48.673Z,97418.11
2018-11-22T20:42:16.097Z,97423.27
2018-11-22T20:44:43.635Z,97423.00
2018-11-22T20:47:11.026Z,97424.58
2018-11-22T20:49:38.470Z,97422.84
2018-11-22T20:52:10.658Z,97423.94
2018-11-22T20:54:38.071Z,97417.84
2018-11-22T20:57:05.615Z,97428.36
2018-11-22T20:59:33.051Z,97424.03
2018-11-22T21:02:00.459Z,97426.53
2018-11-22T21:04:27.897Z,97429.89
2018-11-22T21:06:55.349Z,97429.38
2018-11-22T21:09:22.874Z,97424.60
2018-11-22T21:11:50.294Z,97422.92
2018-11-22T21:14:17.701Z,97424.05
2018-11-22T21:16:45.774Z,97424.87
2018-11-22T21:19:13.183Z,97422.44
2018-11-22T21:21:40.619Z,97427.24
2018-11-22T21:24:08.080Z,97424.48
2018-11-22T21:26:36.728Z,97424.27
2018-11-22T21:29:04.362Z,97427.77
2018-11-22T21:31:31.786Z,97425.48
2018-11-22T21:33:59.263Z,97414.95
2018-11-22T21:36:26.802Z,97421.42
2018-11-22T21:38:54.185Z,97413.55
2018-11-22T21:41:21.628Z,97419.66
2018-11-22T21:43:49.077Z,97416.80
2018-11-22T21:46:16.471Z,97403.53
2018-11-22T21:48:43.983Z,97395.39
2018-11-22T21:51:11.395Z,97400.19
2018-11-22T21:53:38.803Z,97411.35
2018-11-22T21:56:06.246Z,97412.97
2018-11-22T21:58:33.751Z,97408.02
2018-11-22T22:01:01.179Z,97404.41
2018-11-22T22:03:28.618Z,97401.91
2018-11-22T22:05:56.085Z,97408.28
2018-11-22T22:08:23.511Z,97409.75
2018-11-22T22:10:51.079Z,97398.22
2018-11-22T22:13:18.564Z,97410.61
2018-11-22T22:15:45.971Z,97415.20
2018-11-22T22:18:13.374Z,97414.47
2018-11-22T22:20:40.885Z,97413.01
2018-11-22T22:23:13.222Z,97417.80
2018-11-22T22:25:35.780Z,97419.69
2018-11-22T22:28:03.195Z,97417.22
2018-11-22T22:30:30.655Z,97428.16
2018-11-22T22:32:58.088Z,97429.89
2018-11-22T22:35:25.506Z,97430.25
2018-11-22T22:37:52.946Z,97426.02
2018-11-22T22:40:20.371Z,97427.99
2018-11-22T22:42:47.848Z,97425.44
2018-11-22T22:45:15.280Z,97423.02
2018-11-22T22:47:42.702Z,97416.73
2018-11-22T22:50:11.040Z,97418.97
2018-11-22T22:52:39.225Z,97428.31
2018-11-22T22:55:06.745Z,97435.55
2018-11-22T22:57:34.489Z,97429.57
2018-11-22T23:00:01.895Z,97425.75
2018-11-22T23:02:30.036Z,97415.33
2018-11-22T23:04:57.506Z,97400.91
2018-11-22T23:07:25.062Z,97408.41
2018-11-22T23:09:52.514Z,97407.42
2018-11-22T23:12:19.923Z,97412.78
2018-11-22T23:14:47.342Z,97408.39
2018-11-22T23:17:15.368Z,97411.89
2018-11-22T23:19:42.774Z,97411.73
2018-11-22T23:22:10.198Z,97419.03
2018-11-22T23:24:37.623Z,97415.14
2018-11-22T23:27:05.105Z,97418.69
2018-11-22T23:29:32.599Z,97422.95
2018-11-22T23:32:00.236Z,97418.02
2018-11-22T23:34:27.701Z,97421.62
2018-11-22T23:36:55.149Z,97424.48
2018-11-22T23:39:22.628Z,97430.08
2018-11-22T23:41:50.083Z,97429.81
2018-11-22T23:44:17.534Z,97430.77
2018-11-22T23:46:44.950Z,97435.03
2018-11-22T23:49:12.362Z,97431.28
2018-11-22T23:51:39.806Z,97423.31
2018-11-22T23:54:07.257Z,97426.00
2018-11-22T23:56:34.697Z,97417.93
2018-11-22T23:59:02.239Z,97412.61
